sensor_id;sensor_type;location;lat;lon;timestamp;P1;durP1;ratioP1;P2;durP2;ratioP2
46651;SDS011;32377;52.182;5.398;2022-08-01T00:01:33;12.18;;;7.30;;
46651;SDS011;32377;52.182;5.398;2022-08-01T00:03:59;14.77;;;8.18;;
46651;SDS011;32377;52.182;5.398;2022-08-01T00:06:24;13.10;;;7.82;;
46651;SDS011;32377;52.182;5.398;2022-08-01T00:08:50;14.82;;;8.13;;
46651;SDS011;32377;52.182;5.398;2022-08-01T00:11:15;13.05;;;8.07;;
46651;SDS011;32377;52.182;5.398;2022-08-01T00:13:41;16.75;;;8.90;;
46651;SDS011;32377;52.182;5.398;2022-08-01T00:16:07;15.55;;;8.77;;
46651;SDS011;32377;52.182;5.398;2022-08-01T00:18:33;13.13;;;8.90;;
46651;SDS011;32377;52.182;5.398;2022-08-01T00:21:00;12.77;;;8.90;;
46651;SDS011;32377;52.182;5.398;2022-08-01T00:23:26;13.25;;;8.85;;
46651;SDS011;32377;52.182;5.398;2022-08-01T00:25:52;12.50;;;8.48;;
46651;SDS011;32377;52.182;5.398;2022-08-01T00:28:17;13.82;;;9.00;;
46651;SDS011;32377;52.182;5.398;2022-08-01T00:30:43;16.30;;;9.38;;
46651;SDS011;32377;52.182;5.398;2022-08-01T00:33:08;14.45;;;9.07;;
46651;SDS011;32377;52.182;5.398;2022-08-01T00:35:34;13.70;;;8.88;;
46651;SDS011;32377;52.182;5.398;2022-08-01T00:38:00;15.52;;;9.27;;
46651;SDS011;32377;52.182;5.398;2022-08-01T00:40:25;14.80;;;9.20;;
46651;SDS011;32377;52.182;5.398;2022-08-01T00:42:51;17.73;;;9.43;;
46651;SDS011;32377;52.182;5.398;2022-08-01T00:45:16;21.23;;;10.18;;
46651;SDS011;32377;52.182;5.398;2022-08-01T00:47:42;16.80;;;8.60;;
46651;SDS011;32377;52.182;5.398;2022-08-01T00:50:08;14.02;;;8.73;;
46651;SDS011;32377;52.182;5.398;2022-08-01T00:52:34;15.95;;;8.80;;
46651;SDS011;32377;52.182;5.398;2022-08-01T00:55:00;17.40;;;8.13;;
46651;SDS011;32377;52.182;5.398;2022-08-01T00:57:26;15.60;;;7.82;;
46651;SDS011;32377;52.182;5.398;2022-08-01T00:59:53;14.43;;;7.70;;
46651;SDS011;32377;52.182;5.398;2022-08-01T01:02:18;12.52;;;7.75;;
46651;SDS011;32377;52.182;5.398;2022-08-01T01:04:44;13.35;;;7.70;;
46651;SDS011;32377;52.182;5.398;2022-08-01T01:07:24;14.50;;;7.93;;
46651;SDS011;32377;52.182;5.398;2022-08-01T01:09:58;13.75;;;8.70;;
46651;SDS011;32377;52.182;5.398;2022-08-01T01:12:31;16.52;;;9.25;;
46651;SDS011;32377;52.182;5.398;2022-08-01T01:15:21;16.05;;;8.95;;
46651;SDS011;32377;52.182;5.398;2022-08-01T01:20:35;16.15;;;9.63;;
46651;SDS011;32377;52.182;5.398;2022-08-01T01:31:27;18.20;;;8.73;;
46651;SDS011;32377;52.182;5.398;2022-08-01T01:33:56;15.75;;;9.98;;
46651;SDS011;32377;52.182;5.398;2022-08-01T01:36:24;16.17;;;9.23;;
46651;SDS011;32377;52.182;5.398;2022-08-01T01:38:51;16.08;;;8.98;;
46651;SDS011;32377;52.182;5.398;2022-08-01T01:41:19;11.35;;;8.05;;
46651;SDS011;32377;52.182;5.398;2022-08-01T01:43:46;15.55;;;8.73;;
46651;SDS011;32377;52.182;5.398;2022-08-01T01:46:12;13.30;;;8.70;;
46651;SDS011;32377;52.182;5.398;2022-08-01T01:48:43;16.42;;;8.50;;
46651;SDS011;32377;52.182;5.398;2022-08-01T01:51:11;14.98;;;9.35;;
46651;SDS011;32377;52.182;5.398;2022-08-01T01:53:38;16.02;;;8.90;;
46651;SDS011;32377;52.182;5.398;2022-08-01T01:56:06;14.10;;;9.25;;
46651;SDS011;32377;52.182;5.398;2022-08-01T01:58:34;17.00;;;9.45;;
46651;SDS011;32377;52.182;5.398;2022-08-01T02:01:02;25.83;;;12.73;;
46651;SDS011;32377;52.182;5.398;2022-08-01T02:03:29;24.27;;;12.23;;
46651;SDS011;32377;52.182;5.398;2022-08-01T02:05:56;19.40;;;12.00;;
46651;SDS011;32377;52.182;5.398;2022-08-01T02:08:22;22.55;;;12.95;;
46651;SDS011;32377;52.182;5.398;2022-08-01T02:10:49;24.90;;;13.00;;
46651;SDS011;32377;52.182;5.398;2022-08-01T02:13:36;22.63;;;12.95;;
46651;SDS011;32377;52.182;5.398;2022-08-01T02:16:03;21.38;;;12.98;;
46651;SDS011;32377;52.182;5.398;2022-08-01T02:18:30;18.23;;;11.55;;
46651;SDS011;32377;52.182;5.398;2022-08-01T02:20:56;20.38;;;11.55;;
46651;SDS011;32377;52.182;5.398;2022-08-01T02:23:24;19.63;;;10.43;;
46651;SDS011;32377;52.182;5.398;2022-08-01T02:25:56;16.75;;;10.82;;
46651;SDS011;32377;52.182;5.398;2022-08-01T02:28:27;18.15;;;11.43;;
46651;SDS011;32377;52.182;5.398;2022-08-01T02:31:00;18.70;;;11.43;;
46651;SDS011;32377;52.182;5.398;2022-08-01T02:33:34;18.00;;;11.27;;
46651;SDS011;32377;52.182;5.398;2022-08-01T02:36:03;23.38;;;12.55;;
46651;SDS011;32377;52.182;5.398;2022-08-01T02:38:32;22.90;;;13.00;;
46651;SDS011;32377;52.182;5.398;2022-08-01T02:41:03;23.52;;;12.75;;
46651;SDS011;32377;52.182;5.398;2022-08-01T02:43:34;24.52;;;14.20;;
46651;SDS011;32377;52.182;5.398;2022-08-01T02:46:07;26.80;;;13.20;;
46651;SDS011;32377;52.182;5.398;2022-08-01T02:48:36;21.45;;;12.65;;
46651;SDS011;32377;52.182;5.398;2022-08-01T02:51:05;24.67;;;13.82;;
46651;SDS011;32377;52.182;5.398;2022-08-01T02:53:33;24.25;;;12.38;;
46651;SDS011;32377;52.182;5.398;2022-08-01T02:56:02;21.50;;;12.07;;
46651;SDS011;32377;52.182;5.398;2022-08-01T02:58:33;22.67;;;12.98;;
46651;SDS011;32377;52.182;5.398;2022-08-01T03:01:01;20.17;;;11.50;;
46651;SDS011;32377;52.182;5.398;2022-08-01T03:03:28;22.33;;;12.38;;
46651;SDS011;32377;52.182;5.398;2022-08-01T03:05:54;17.23;;;11.38;;
46651;SDS011;32377;52.182;5.398;2022-08-01T03:08:21;22.30;;;12.20;;
46651;SDS011;32377;52.182;5.398;2022-08-01T03:10:48;25.17;;;12.35;;
46651;SDS011;32377;52.182;5.398;2022-08-01T03:13:16;20.52;;;11.23;;
46651;SDS011;32377;52.182;5.398;2022-08-01T03:15:44;22.05;;;11.95;;
46651;SDS011;32377;52.182;5.398;2022-08-01T03:18:10;21.75;;;12.05;;
46651;SDS011;32377;52.182;5.398;2022-08-01T03:20:38;22.83;;;12.60;;
46651;SDS011;32377;52.182;5.398;2022-08-01T03:23:05;18.90;;;12.45;;
46651;SDS011;32377;52.182;5.398;2022-08-01T03:25:36;20.80;;;12.73;;
46651;SDS011;32377;52.182;5.398;2022-08-01T03:28:04;19.27;;;12.20;;
46651;SDS011;32377;52.182;5.398;2022-08-01T03:30:32;21.48;;;12.07;;
46651;SDS011;32377;52.182;5.398;2022-08-01T03:32:58;20.45;;;12.13;;
46651;SDS011;32377;52.182;5.398;2022-08-01T03:35:29;21.23;;;12.57;;
46651;SDS011;32377;52.182;5.398;2022-08-01T03:37:58;23.70;;;12.50;;
46651;SDS011;32377;52.182;5.398;2022-08-01T03:43:02;20.42;;;12.95;;
46651;SDS011;32377;52.182;5.398;2022-08-01T03:45:34;25.23;;;11.48;;
46651;SDS011;32377;52.182;5.398;2022-08-01T03:48:03;26.48;;;13.45;;
46651;SDS011;32377;52.182;5.398;2022-08-01T03:50:33;23.70;;;13.07;;
46651;SDS011;32377;52.182;5.398;2022-08-01T03:53:01;20.85;;;12.13;;
46651;SDS011;32377;52.182;5.398;2022-08-01T03:55:29;21.23;;;11.65;;
46651;SDS011;32377;52.182;5.398;2022-08-01T03:57:56;17.13;;;11.52;;
46651;SDS011;32377;52.182;5.398;2022-08-01T04:00:23;20.40;;;11.55;;
46651;SDS011;32377;52.182;5.398;2022-08-01T04:02:49;23.05;;;12.35;;
46651;SDS011;32377;52.182;5.398;2022-08-01T04:05:16;22.00;;;11.88;;
46651;SDS011;32377;52.182;5.398;2022-08-01T04:07:45;22.83;;;12.13;;
46651;SDS011;32377;52.182;5.398;2022-08-01T04:10:12;18.50;;;11.43;;
46651;SDS011;32377;52.182;5.398;2022-08-01T04:12:38;20.20;;;12.35;;
46651;SDS011;32377;52.182;5.398;2022-08-01T04:15:04;19.80;;;11.15;;
46651;SDS011;32377;52.182;5.398;2022-08-01T04:17:30;16.77;;;10.88;;
46651;SDS011;32377;52.182;5.398;2022-08-01T04:19:56;19.65;;;11.77;;
46651;SDS011;32377;52.182;5.398;2022-08-01T04:22:21;19.00;;;11.55;;
46651;SDS011;32377;52.182;5.398;2022-08-01T04:24:47;10.43;;;6.85;;
46651;SDS011;32377;52.182;5.398;2022-08-01T04:27:19;9.40;;;6.35;;
46651;SDS011;32377;52.182;5.398;2022-08-01T04:29:53;12.25;;;6.40;;
46651;SDS011;32377;52.182;5.398;2022-08-01T04:32:21;10.73;;;4.90;;
46651;SDS011;32377;52.182;5.398;2022-08-01T04:34:48;9.10;;;5.25;;
46651;SDS011;32377;52.182;5.398;2022-08-01T04:37:15;10.88;;;5.57;;
46651;SDS011;32377;52.182;5.398;2022-08-01T04:39:41;10.23;;;5.00;;
46651;SDS011;32377;52.182;5.398;2022-08-01T04:42:09;10.45;;;4.25;;
46651;SDS011;32377;52.182;5.398;2022-08-01T04:44:36;5.70;;;3.63;;
46651;SDS011;32377;52.182;5.398;2022-08-01T04:47:02;4.63;;;3.40;;
46651;SDS011;32377;52.182;5.398;2022-08-01T04:49:33;4.97;;;3.30;;
46651;SDS011;32377;52.182;5.398;2022-08-01T04:51:59;5.07;;;3.20;;
46651;SDS011;32377;52.182;5.398;2022-08-01T04:54:25;3.92;;;2.85;;
46651;SDS011;32377;52.182;5.398;2022-08-01T04:56:52;5.00;;;3.03;;
46651;SDS011;32377;52.182;5.398;2022-08-01T04:59:20;3.63;;;2.70;;
46651;SDS011;32377;52.182;5.398;2022-08-01T05:02:05;4.47;;;2.95;;
46651;SDS011;32377;52.182;5.398;2022-08-01T05:04:38;4.78;;;3.35;;
46651;SDS011;32377;52.182;5.398;2022-08-01T05:07:05;5.22;;;3.20;;
46651;SDS011;32377;52.182;5.398;2022-08-01T05:09:31;3.75;;;3.00;;
46651;SDS011;32377;52.182;5.398;2022-08-01T05:11:58;4.70;;;3.00;;
46651;SDS011;32377;52.182;5.398;2022-08-01T05:14:26;3.70;;;3.30;;
46651;SDS011;32377;52.182;5.398;2022-08-01T05:16:53;5.40;;;3.92;;
46651;SDS011;32377;52.182;5.398;2022-08-01T05:19:19;6.10;;;3.25;;
46651;SDS011;32377;52.182;5.398;2022-08-01T05:21:44;8.10;;;3.97;;
46651;SDS011;32377;52.182;5.398;2022-08-01T05:24:10;7.05;;;4.22;;
46651;SDS011;32377;52.182;5.398;2022-08-01T05:26:36;11.70;;;4.60;;
46651;SDS011;32377;52.182;5.398;2022-08-01T05:29:01;6.07;;;3.88;;
46651;SDS011;32377;52.182;5.398;2022-08-01T05:31:27;5.20;;;4.25;;
46651;SDS011;32377;52.182;5.398;2022-08-01T05:33:53;4.18;;;3.25;;
46651;SDS011;32377;52.182;5.398;2022-08-01T05:36:18;6.40;;;3.70;;
46651;SDS011;32377;52.182;5.398;2022-08-01T05:38:44;5.22;;;3.60;;
46651;SDS011;32377;52.182;5.398;2022-08-01T05:41:10;5.63;;;4.55;;
46651;SDS011;32377;52.182;5.398;2022-08-01T05:43:35;5.57;;;4.20;;
46651;SDS011;32377;52.182;5.398;2022-08-01T05:46:01;6.80;;;3.53;;
46651;SDS011;32377;52.182;5.398;2022-08-01T05:48:27;4.78;;;3.85;;
46651;SDS011;32377;52.182;5.398;2022-08-01T05:50:53;6.03;;;3.75;;
46651;SDS011;32377;52.182;5.398;2022-08-01T05:53:19;7.35;;;3.63;;
46651;SDS011;32377;52.182;5.398;2022-08-01T05:55:44;4.03;;;3.63;;
46651;SDS011;32377;52.182;5.398;2022-08-01T05:58:10;6.68;;;4.07;;
46651;SDS011;32377;52.182;5.398;2022-08-01T06:00:36;7.53;;;3.70;;
46651;SDS011;32377;52.182;5.398;2022-08-01T06:03:01;7.90;;;4.10;;
46651;SDS011;32377;52.182;5.398;2022-08-01T06:05:27;9.95;;;4.03;;
46651;SDS011;32377;52.182;5.398;2022-08-01T06:07:53;6.88;;;4.00;;
46651;SDS011;32377;52.182;5.398;2022-08-01T06:10:19;5.13;;;4.53;;
46651;SDS011;32377;52.182;5.398;2022-08-01T06:12:44;5.00;;;4.35;;
46651;SDS011;32377;52.182;5.398;2022-08-01T06:15:11;6.25;;;4.40;;
46651;SDS011;32377;52.182;5.398;2022-08-01T06:17:36;6.78;;;4.57;;
46651;SDS011;32377;52.182;5.398;2022-08-01T06:20:02;6.78;;;4.65;;
46651;SDS011;32377;52.182;5.398;2022-08-01T06:22:28;6.97;;;4.57;;
46651;SDS011;32377;52.182;5.398;2022-08-01T06:24:54;7.00;;;4.68;;
46651;SDS011;32377;52.182;5.398;2022-08-01T06:27:20;5.07;;;4.47;;
46651;SDS011;32377;52.182;5.398;2022-08-01T06:29:45;6.60;;;4.80;;
46651;SDS011;32377;52.182;5.398;2022-08-01T06:32:11;7.13;;;5.05;;
46651;SDS011;32377;52.182;5.398;2022-08-01T06:34:37;13.75;;;6.10;;
46651;SDS011;32377;52.182;5.398;2022-08-01T06:37:03;11.70;;;5.03;;
46651;SDS011;32377;52.182;5.398;2022-08-01T06:39:28;9.35;;;6.00;;
46651;SDS011;32377;52.182;5.398;2022-08-01T06:41:54;6.50;;;5.75;;
46651;SDS011;32377;52.182;5.398;2022-08-01T06:44:19;10.55;;;6.13;;
46651;SDS011;32377;52.182;5.398;2022-08-01T06:46:45;7.35;;;5.88;;
46651;SDS011;32377;52.182;5.398;2022-08-01T06:49:10;8.18;;;5.43;;
46651;SDS011;32377;52.182;5.398;2022-08-01T06:51:36;7.75;;;5.50;;
46651;SDS011;32377;52.182;5.398;2022-08-01T06:54:01;7.90;;;5.35;;
46651;SDS011;32377;52.182;5.398;2022-08-01T06:56:27;6.97;;;4.82;;
46651;SDS011;32377;52.182;5.398;2022-08-01T06:58:53;7.10;;;5.63;;
46651;SDS011;32377;52.182;5.398;2022-08-01T07:01:21;8.07;;;5.70;;
46651;SDS011;32377;52.182;5.398;2022-08-01T07:03:46;8.57;;;5.47;;
46651;SDS011;32377;52.182;5.398;2022-08-01T07:06:12;7.22;;;5.35;;
46651;SDS011;32377;52.182;5.398;2022-08-01T07:08:39;7.10;;;5.97;;
46651;SDS011;32377;52.182;5.398;2022-08-01T07:11:05;9.38;;;6.22;;
46651;SDS011;32377;52.182;5.398;2022-08-01T07:13:31;8.48;;;5.90;;
46651;SDS011;32377;52.182;5.398;2022-08-01T07:15:57;11.85;;;6.60;;
46651;SDS011;32377;52.182;5.398;2022-08-01T07:18:23;15.68;;;6.80;;
46651;SDS011;32377;52.182;5.398;2022-08-01T07:20:48;9.00;;;6.55;;
46651;SDS011;32377;52.182;5.398;2022-08-01T07:23:15;9.65;;;6.35;;
46651;SDS011;32377;52.182;5.398;2022-08-01T07:25:41;16.85;;;7.13;;
46651;SDS011;32377;52.182;5.398;2022-08-01T07:28:07;14.82;;;6.15;;
46651;SDS011;32377;52.182;5.398;2022-08-01T07:30:33;21.25;;;5.53;;
46651;SDS011;32377;52.182;5.398;2022-08-01T07:32:59;18.23;;;5.40;;
46651;SDS011;32377;52.182;5.398;2022-08-01T07:35:25;18.60;;;4.93;;
46651;SDS011;32377;52.182;5.398;2022-08-01T07:37:50;24.65;;;5.40;;
46651;SDS011;32377;52.182;5.398;2022-08-01T07:40:18;19.67;;;5.38;;
46651;SDS011;32377;52.182;5.398;2022-08-01T07:42:43;22.80;;;5.68;;
46651;SDS011;32377;52.182;5.398;2022-08-01T07:45:10;20.52;;;5.40;;
46651;SDS011;32377;52.182;5.398;2022-08-01T07:47:36;22.85;;;5.53;;
46651;SDS011;32377;52.182;5.398;2022-08-01T07:50:02;31.45;;;5.60;;
46651;SDS011;32377;52.182;5.398;2022-08-01T07:52:29;22.83;;;5.20;;
46651;SDS011;32377;52.182;5.398;2022-08-01T07:54:55;17.45;;;5.03;;
46651;SDS011;32377;52.182;5.398;2022-08-01T07:57:21;22.77;;;5.57;;
46651;SDS011;32377;52.182;5.398;2022-08-01T07:59:48;24.85;;;5.18;;
46651;SDS011;32377;52.182;5.398;2022-08-01T08:02:13;29.02;;;5.97;;
46651;SDS011;32377;52.182;5.398;2022-08-01T08:04:39;20.77;;;4.95;;
46651;SDS011;32377;52.182;5.398;2022-08-01T08:07:05;18.92;;;5.25;;
46651;SDS011;32377;52.182;5.398;2022-08-01T08:09:31;25.63;;;5.40;;
46651;SDS011;32377;52.182;5.398;2022-08-01T08:11:56;19.48;;;5.35;;
46651;SDS011;32377;52.182;5.398;2022-08-01T08:14:22;24.30;;;4.57;;
46651;SDS011;32377;52.182;5.398;2022-08-01T08:16:49;23.20;;;4.72;;
46651;SDS011;32377;52.182;5.398;2022-08-01T08:19:15;21.70;;;4.68;;
46651;SDS011;32377;52.182;5.398;2022-08-01T08:21:40;20.10;;;5.30;;
46651;SDS011;32377;52.182;5.398;2022-08-01T08:24:07;25.60;;;4.82;;
46651;SDS011;32377;52.182;5.398;2022-08-01T08:26:45;21.02;;;4.47;;
46651;SDS011;32377;52.182;5.398;2022-08-01T08:29:12;22.85;;;4.20;;
46651;SDS011;32377;52.182;5.398;2022-08-01T08:31:37;21.38;;;4.68;;
46651;SDS011;32377;52.182;5.398;2022-08-01T08:34:03;12.95;;;4.47;;
46651;SDS011;32377;52.182;5.398;2022-08-01T08:36:28;13.77;;;3.47;;
46651;SDS011;32377;52.182;5.398;2022-08-01T08:38:54;18.05;;;4.35;;
46651;SDS011;32377;52.182;5.398;2022-08-01T08:41:20;15.70;;;4.28;;
46651;SDS011;32377;52.182;5.398;2022-08-01T08:43:47;10.82;;;3.42;;
46651;SDS011;32377;52.182;5.398;2022-08-01T08:46:13;11.73;;;3.13;;
46651;SDS011;32377;52.182;5.398;2022-08-01T08:48:40;9.75;;;3.05;;
46651;SDS011;32377;52.182;5.398;2022-08-01T08:51:07;16.38;;;3.67;;
46651;SDS011;32377;52.182;5.398;2022-08-01T08:53:35;15.18;;;3.35;;
46651;SDS011;32377;52.182;5.398;2022-08-01T08:56:03;14.88;;;2.97;;
46651;SDS011;32377;52.182;5.398;2022-08-01T08:58:31;11.68;;;2.88;;
46651;SDS011;32377;52.182;5.398;2022-08-01T09:01:02;10.38;;;2.55;;
46651;SDS011;32377;52.182;5.398;2022-08-01T09:03:31;9.98;;;2.95;;
46651;SDS011;32377;52.182;5.398;2022-08-01T09:05:57;12.25;;;3.28;;
46651;SDS011;32377;52.182;5.398;2022-08-01T09:08:23;8.50;;;2.65;;
46651;SDS011;32377;52.182;5.398;2022-08-01T09:10:48;15.55;;;3.67;;
46651;SDS011;32377;52.182;5.398;2022-08-01T09:13:14;11.70;;;3.15;;
46651;SDS011;32377;52.182;5.398;2022-08-01T09:18:07;9.98;;;2.65;;
46651;SDS011;32377;52.182;5.398;2022-08-01T09:20:33;10.60;;;3.20;;
46651;SDS011;32377;52.182;5.398;2022-08-01T09:23:00;16.05;;;3.13;;
46651;SDS011;32377;52.182;5.398;2022-08-01T09:25:27;15.63;;;2.92;;
46651;SDS011;32377;52.182;5.398;2022-08-01T09:28:05;10.73;;;2.50;;
46651;SDS011;32377;52.182;5.398;2022-08-01T09:30:40;10.75;;;2.42;;
46651;SDS011;32377;52.182;5.398;2022-08-01T09:33:06;10.00;;;2.22;;
46651;SDS011;32377;52.182;5.398;2022-08-01T09:35:35;8.93;;;2.00;;
46651;SDS011;32377;52.182;5.398;2022-08-01T09:38:15;4.72;;;1.50;;
46651;SDS011;32377;52.182;5.398;2022-08-01T09:40:45;8.15;;;1.92;;
46651;SDS011;32377;52.182;5.398;2022-08-01T09:43:12;8.55;;;1.58;;
46651;SDS011;32377;52.182;5.398;2022-08-01T09:45:38;4.43;;;1.45;;
46651;SDS011;32377;52.182;5.398;2022-08-01T09:48:07;7.97;;;1.88;;
46651;SDS011;32377;52.182;5.398;2022-08-01T09:50:44;7.65;;;1.65;;
46651;SDS011;32377;52.182;5.398;2022-08-01T09:53:12;7.22;;;1.92;;
46651;SDS011;32377;52.182;5.398;2022-08-01T09:55:38;14.05;;;2.00;;
46651;SDS011;32377;52.182;5.398;2022-08-01T09:58:05;6.20;;;1.95;;
46651;SDS011;32377;52.182;5.398;2022-08-01T10:00:32;4.95;;;1.95;;
46651;SDS011;32377;52.182;5.398;2022-08-01T10:02:59;12.18;;;2.58;;
46651;SDS011;32377;52.182;5.398;2022-08-01T10:05:42;8.77;;;2.47;;
46651;SDS011;32377;52.182;5.398;2022-08-01T10:08:08;12.05;;;2.40;;
46651;SDS011;32377;52.182;5.398;2022-08-01T10:10:33;10.55;;;2.17;;
46651;SDS011;32377;52.182;5.398;2022-08-01T10:12:59;8.30;;;2.03;;
46651;SDS011;32377;52.182;5.398;2022-08-01T10:15:25;8.32;;;1.73;;
46651;SDS011;32377;52.182;5.398;2022-08-01T10:17:55;6.95;;;1.58;;
46651;SDS011;32377;52.182;5.398;2022-08-01T10:20:26;4.75;;;1.55;;
46651;SDS011;32377;52.182;5.398;2022-08-01T10:22:53;5.63;;;1.45;;
46651;SDS011;32377;52.182;5.398;2022-08-01T10:25:20;9.82;;;2.00;;
46651;SDS011;32377;52.182;5.398;2022-08-01T10:27:50;10.35;;;2.13;;
46651;SDS011;32377;52.182;5.398;2022-08-01T10:30:20;10.43;;;2.70;;
46651;SDS011;32377;52.182;5.398;2022-08-01T10:32:46;8.80;;;2.33;;
46651;SDS011;32377;52.182;5.398;2022-08-01T10:35:12;9.05;;;2.55;;
46651;SDS011;32377;52.182;5.398;2022-08-01T10:37:43;10.10;;;2.85;;
46651;SDS011;32377;52.182;5.398;2022-08-01T10:40:11;10.88;;;2.60;;
46651;SDS011;32377;52.182;5.398;2022-08-01T10:42:39;10.55;;;2.65;;
46651;SDS011;32377;52.182;5.398;2022-08-01T10:45:07;13.68;;;2.97;;
46651;SDS011;32377;52.182;5.398;2022-08-01T10:50:38;13.05;;;2.80;;
46651;SDS011;32377;52.182;5.398;2022-08-01T10:53:14;12.90;;;2.95;;
46651;SDS011;32377;52.182;5.398;2022-08-01T10:58:24;13.43;;;2.53;;
46651;SDS011;32377;52.182;5.398;2022-08-01T11:09:00;7.70;;;2.10;;
46651;SDS011;32377;52.182;5.398;2022-08-01T11:11:27;10.75;;;2.50;;
46651;SDS011;32377;52.182;5.398;2022-08-01T11:16:42;9.40;;;2.33;;
46651;SDS011;32377;52.182;5.398;2022-08-01T11:19:08;13.73;;;2.50;;
46651;SDS011;32377;52.182;5.398;2022-08-01T11:27:21;9.55;;;1.85;;
46651;SDS011;32377;52.182;5.398;2022-08-01T11:30:35;9.52;;;2.20;;
46651;SDS011;32377;52.182;5.398;2022-08-01T11:32:53;7.95;;;2.03;;
46651;SDS011;32377;52.182;5.398;2022-08-01T11:35:21;8.40;;;2.15;;
46651;SDS011;32377;52.182;5.398;2022-08-01T11:37:52;9.05;;;1.85;;
46651;SDS011;32377;52.182;5.398;2022-08-01T11:40:26;6.97;;;1.88;;
46651;SDS011;32377;52.182;5.398;2022-08-01T11:43:38;12.50;;;3.20;;
46651;SDS011;32377;52.182;5.398;2022-08-01T11:48:24;7.85;;;1.83;;
46651;SDS011;32377;52.182;5.398;2022-08-01T11:50:51;3.30;;;1.77;;
46651;SDS011;32377;52.182;5.398;2022-08-01T11:53:18;11.50;;;1.83;;
46651;SDS011;32377;52.182;5.398;2022-08-01T11:55:45;7.22;;;2.22;;
46651;SDS011;32377;52.182;5.398;2022-08-01T11:58:13;8.20;;;2.22;;
46651;SDS011;32377;52.182;5.398;2022-08-01T12:00:39;7.78;;;1.77;;
46651;SDS011;32377;52.182;5.398;2022-08-01T12:03:07;9.23;;;1.95;;
46651;SDS011;32377;52.182;5.398;2022-08-01T12:05:34;5.03;;;1.65;;
46651;SDS011;32377;52.182;5.398;2022-08-01T12:08:02;8.73;;;1.60;;
46651;SDS011;32377;52.182;5.398;2022-08-01T12:10:29;7.68;;;1.42;;
46651;SDS011;32377;52.182;5.398;2022-08-01T12:13:03;7.45;;;1.33;;
46651;SDS011;32377;52.182;5.398;2022-08-01T12:15:32;7.40;;;1.60;;
46651;SDS011;32377;52.182;5.398;2022-08-01T12:18:03;5.85;;;1.45;;
46651;SDS011;32377;52.182;5.398;2022-08-01T12:20:30;5.47;;;1.70;;
46651;SDS011;32377;52.182;5.398;2022-08-01T12:23:05;3.80;;;1.60;;
46651;SDS011;32377;52.182;5.398;2022-08-01T12:25:33;5.68;;;1.70;;
46651;SDS011;32377;52.182;5.398;2022-08-01T12:28:00;5.95;;;1.52;;
46651;SDS011;32377;52.182;5.398;2022-08-01T12:30:28;6.40;;;1.55;;
46651;SDS011;32377;52.182;5.398;2022-08-01T12:32:55;4.05;;;1.40;;
46651;SDS011;32377;52.182;5.398;2022-08-01T12:35:22;7.30;;;1.50;;
46651;SDS011;32377;52.182;5.398;2022-08-01T12:37:50;7.45;;;1.88;;
46651;SDS011;32377;52.182;5.398;2022-08-01T12:40:22;5.38;;;1.50;;
46651;SDS011;32377;52.182;5.398;2022-08-01T12:42:51;6.68;;;1.98;;
46651;SDS011;32377;52.182;5.398;2022-08-01T12:45:19;3.30;;;1.30;;
46651;SDS011;32377;52.182;5.398;2022-08-01T12:47:48;5.57;;;1.50;;
46651;SDS011;32377;52.182;5.398;2022-08-01T12:50:18;2.92;;;1.20;;
46651;SDS011;32377;52.182;5.398;2022-08-01T12:52:46;5.63;;;1.13;;
46651;SDS011;32377;52.182;5.398;2022-08-01T12:57:43;4.60;;;1.02;;
46651;SDS011;32377;52.182;5.398;2022-08-01T13:00:19;3.05;;;0.98;;
46651;SDS011;32377;52.182;5.398;2022-08-01T13:02:47;3.65;;;0.80;;
46651;SDS011;32377;52.182;5.398;2022-08-01T13:05:15;2.72;;;1.08;;
46651;SDS011;32377;52.182;5.398;2022-08-01T13:07:58;3.38;;;1.15;;
46651;SDS011;32377;52.182;5.398;2022-08-01T13:10:25;4.85;;;1.30;;
46651;SDS011;32377;52.182;5.398;2022-08-01T13:12:54;3.67;;;1.27;;
46651;SDS011;32377;52.182;5.398;2022-08-01T13:17:49;6.22;;;1.52;;
46651;SDS011;32377;52.182;5.398;2022-08-01T13:20:21;7.78;;;1.90;;
46651;SDS011;32377;52.182;5.398;2022-08-01T13:22:51;3.58;;;1.45;;
46651;SDS011;32377;52.182;5.398;2022-08-01T13:25:17;5.43;;;1.50;;
46651;SDS011;32377;52.182;5.398;2022-08-01T13:27:43;4.28;;;0.98;;
46651;SDS011;32377;52.182;5.398;2022-08-01T13:30:17;2.20;;;1.00;;
46651;SDS011;32377;52.182;5.398;2022-08-01T13:32:44;7.43;;;1.15;;
46651;SDS011;32377;52.182;5.398;2022-08-01T13:35:25;5.97;;;1.30;;
46651;SDS011;32377;52.182;5.398;2022-08-01T13:37:51;4.35;;;1.10;;
46651;SDS011;32377;52.182;5.398;2022-08-01T13:40:24;4.22;;;1.30;;
46651;SDS011;32377;52.182;5.398;2022-08-01T13:42:51;2.05;;;1.15;;
46651;SDS011;32377;52.182;5.398;2022-08-01T13:45:18;2.15;;;0.90;;
46651;SDS011;32377;52.182;5.398;2022-08-01T13:47:44;2.53;;;1.17;;
46651;SDS011;32377;52.182;5.398;2022-08-01T13:50:09;3.50;;;1.20;;
46651;SDS011;32377;52.182;5.398;2022-08-01T13:52:35;3.17;;;1.25;;
46651;SDS011;32377;52.182;5.398;2022-08-01T13:55:01;2.80;;;1.27;;
46651;SDS011;32377;52.182;5.398;2022-08-01T13:57:27;3.30;;;1.02;;
46651;SDS011;32377;52.182;5.398;2022-08-01T13:59:53;3.17;;;1.30;;
46651;SDS011;32377;52.182;5.398;2022-08-01T14:02:19;3.03;;;1.02;;
46651;SDS011;32377;52.182;5.398;2022-08-01T14:04:45;4.53;;;1.20;;
46651;SDS011;32377;52.182;5.398;2022-08-01T14:07:10;3.70;;;1.52;;
46651;SDS011;32377;52.182;5.398;2022-08-01T14:09:36;3.05;;;1.17;;
46651;SDS011;32377;52.182;5.398;2022-08-01T14:12:02;5.10;;;1.20;;
46651;SDS011;32377;52.182;5.398;2022-08-01T14:14:28;5.90;;;1.83;;
46651;SDS011;32377;52.182;5.398;2022-08-01T14:16:55;5.60;;;1.30;;
46651;SDS011;32377;52.182;5.398;2022-08-01T14:19:21;2.08;;;0.98;;
46651;SDS011;32377;52.182;5.398;2022-08-01T14:21:46;1.40;;;0.70;;
46651;SDS011;32377;52.182;5.398;2022-08-01T14:24:12;7.30;;;1.00;;
46651;SDS011;32377;52.182;5.398;2022-08-01T14:26:37;3.70;;;1.20;;
46651;SDS011;32377;52.182;5.398;2022-08-01T14:29:03;3.50;;;1.00;;
46651;SDS011;32377;52.182;5.398;2022-08-01T14:31:29;4.90;;;1.00;;
46651;SDS011;32377;52.182;5.398;2022-08-01T14:33:54;5.53;;;1.10;;
46651;SDS011;32377;52.182;5.398;2022-08-01T14:36:20;8.00;;;1.50;;
46651;SDS011;32377;52.182;5.398;2022-08-01T14:38:46;5.78;;;1.48;;
46651;SDS011;32377;52.182;5.398;2022-08-01T14:41:12;5.95;;;1.33;;
46651;SDS011;32377;52.182;5.398;2022-08-01T14:43:38;3.35;;;1.40;;
46651;SDS011;32377;52.182;5.398;2022-08-01T14:46:03;5.10;;;1.48;;
46651;SDS011;32377;52.182;5.398;2022-08-01T14:48:29;5.00;;;1.13;;
46651;SDS011;32377;52.182;5.398;2022-08-01T14:50:55;6.38;;;1.40;;
46651;SDS011;32377;52.182;5.398;2022-08-01T14:53:21;2.53;;;1.00;;
46651;SDS011;32377;52.182;5.398;2022-08-01T14:55:47;3.00;;;1.08;;
46651;SDS011;32377;52.182;5.398;2022-08-01T14:58:13;7.72;;;1.20;;
46651;SDS011;32377;52.182;5.398;2022-08-01T15:00:39;5.68;;;1.23;;
46651;SDS011;32377;52.182;5.398;2022-08-01T15:03:05;4.97;;;1.30;;
46651;SDS011;32377;52.182;5.398;2022-08-01T15:05:30;5.10;;;0.85;;
46651;SDS011;32377;52.182;5.398;2022-08-01T15:07:57;3.95;;;0.88;;
46651;SDS011;32377;52.182;5.398;2022-08-01T15:10:23;4.28;;;0.98;;
46651;SDS011;32377;52.182;5.398;2022-08-01T15:12:48;3.53;;;0.80;;
46651;SDS011;32377;52.182;5.398;2022-08-01T15:15:14;3.30;;;1.02;;
46651;SDS011;32377;52.182;5.398;2022-08-01T15:17:39;3.55;;;0.88;;
46651;SDS011;32377;52.182;5.398;2022-08-01T15:20:05;3.83;;;1.05;;
46651;SDS011;32377;52.182;5.398;2022-08-01T15:22:32;2.40;;;0.85;;
46651;SDS011;32377;52.182;5.398;2022-08-01T15:24:59;1.55;;;0.80;;
46651;SDS011;32377;52.182;5.398;2022-08-01T15:27:27;5.18;;;0.90;;